Nederlandse vliegveldverwachtingen (TAF)

Luchtvaartmeteorologische informatie voor operationeel gebruik en vluchtvoorbereiding is beschikbaar op www.luchtvaartmeteo.nl.

ZCZC
FT221700 EHAM     AMSTERDAM/SCHIPHOL   NLD   -3 m.
TAF EHAM 221633Z 2218/2324 VRB03KT CAVOK
    BECMG 2220/2223 18005KT
    BECMG 2307/2310 26010KT
    BECMG 2315/2318 VRB03KT=

ZCZC
FT221700 EHBK     MAASTRICHT/MAASTRICHT-AACHEN   NLD   114 m.
TAF EHBK 221644Z 2218/2324 VRB04KT 9999 SCT049
    BECMG 2305/2308 24008KT
    BECMG 2317/2320 VRB03KT=

ZCZC
FT221700 EHGG     GRONINGEN/EELDE   NLD   5 m.
TAF EHGG 221645Z 2218/2324 28009KT CAVOK
    BECMG 2218/2220 VRB03KT
    PROB30 2223/2304 5000 MIFG
    BECMG 2304/2307 21010KT
    BECMG 2318/2320 VRB03KT=

ZCZC
FT221700 EHRD     ROTTERDAM/THE HAGUE AIRPORT   NLD   -5 m.
TAF EHRD 221640Z 2218/2324 VRB03KT CAVOK
    BECMG 2220/2223 18005KT
    BECMG 2307/2310 25010KT
    BECMG 2315/2318 VRB03KT=

ZCZC
FT221700 EHEH     EINDHOVEN/EINDHOVEN   NLD   22 m.
TAF EHEH 221733Z 2218/2324 30005KT 9999 FEW050
    BECMG 2218/2221 VRB03KT
    BECMG 2306/2309 25007KT=

ZCZC
FC222100 EHGR     GILZE-RIJEN/GILZE-RIJEN   NLD   14 m.
TAF EHGR 222100Z NIL=

ZCZC
FC222100 EHKD     DE KOOY/DE KOOY   NLD   1 m.
TAF EHKD 222015Z 2221/2309 20006KT CAVOK
    BECMG 2305/2308 24010KT=

ZCZC
FC222100 EHLW     LEEUWARDEN/LEEUWARDEN   NLD   1 m.
TAF EHLW 222013Z 2221/2309 20005KT CAVOK
    BECMG 2305/2308 24010KT=

ZCZC
FC222100 EHVK     VOLKEL/VOLKEL   NLD   21 m.
TAF EHVK 222009Z 2221/2309 VRB02KT CAVOK
    BECMG 2307/2309 25008KT=

ZCZC
FC222100 EHWO     WOENSDRECHT/WOENSDRECHT   NLD   19 m.
TAF EHWO 222100Z NIL=

22/05/2019 23.15 uur LT